sensor_id;sensor_type;location;lat;lon;timestamp;temperature;humidity
12893;DHT22;6514;48.606;9.222;2023-04-25T00:00:26;7.10;99.90
12893;DHT22;6514;48.606;9.222;2023-04-25T00:02:53;7.20;99.90
12893;DHT22;6514;48.606;9.222;2023-04-25T00:05:21;7.20;99.90
12893;DHT22;6514;48.606;9.222;2023-04-25T00:07:50;7.20;99.90
12893;DHT22;6514;48.606;9.222;2023-04-25T00:10:17;7.20;99.90
12893;DHT22;6514;48.606;9.222;2023-04-25T00:12:43;7.10;99.90
12893;DHT22;6514;48.606;9.222;2023-04-25T00:15:11;7.10;99.90
12893;DHT22;6514;48.606;9.222;2023-04-25T00:17:38;7.10;99.90
12893;DHT22;6514;48.606;9.222;2023-04-25T00:20:06;7.10;99.90
12893;DHT22;6514;48.606;9.222;2023-04-25T00:22:35;7.00;99.90
12893;DHT22;6514;48.606;9.222;2023-04-25T00:25:05;7.00;99.90
12893;DHT22;6514;48.606;9.222;2023-04-25T00:27:32;7.00;99.90
12893;DHT22;6514;48.606;9.222;2023-04-25T00:29:58;7.00;99.90
12893;DHT22;6514;48.606;9.222;2023-04-25T00:32:25;7.00;99.90
12893;DHT22;6514;48.606;9.222;2023-04-25T00:34:52;7.00;99.90
12893;DHT22;6514;48.606;9.222;2023-04-25T00:37:21;7.00;99.90
12893;DHT22;6514;48.606;9.222;2023-04-25T00:39:48;7.00;99.90
12893;DHT22;6514;48.606;9.222;2023-04-25T00:42:16;6.90;99.90
12893;DHT22;6514;48.606;9.222;2023-04-25T00:44:43;7.00;99.90
12893;DHT22;6514;48.606;9.222;2023-04-25T00:47:11;7.00;99.90
12893;DHT22;6514;48.606;9.222;2023-04-25T00:49:38;7.00;99.90
12893;DHT22;6514;48.606;9.222;2023-04-25T00:52:05;7.00;99.90
12893;DHT22;6514;48.606;9.222;2023-04-25T00:54:32;7.10;99.90
12893;DHT22;6514;48.606;9.222;2023-04-25T00:56:59;7.10;99.90
12893;DHT22;6514;48.606;9.222;2023-04-25T00:59:28;7.20;99.90
12893;DHT22;6514;48.606;9.222;2023-04-25T01:01:56;7.20;99.90
12893;DHT22;6514;48.606;9.222;2023-04-25T01:04:23;7.20;99.90
12893;DHT22;6514;48.606;9.222;2023-04-25T01:06:50;7.20;99.90
12893;DHT22;6514;48.606;9.222;2023-04-25T01:09:17;7.20;99.90
12893;DHT22;6514;48.606;9.222;2023-04-25T01:11:45;7.30;99.90
12893;DHT22;6514;48.606;9.222;2023-04-25T01:14:12;7.30;99.90
12893;DHT22;6514;48.606;9.222;2023-04-25T01:16:40;7.30;99.90
12893;DHT22;6514;48.606;9.222;2023-04-25T01:19:09;7.30;99.90
12893;DHT22;6514;48.606;9.222;2023-04-25T01:21:39;7.30;99.90
12893;DHT22;6514;48.606;9.222;2023-04-25T01:24:06;7.30;99.90
12893;DHT22;6514;48.606;9.222;2023-04-25T01:26:33;7.30;99.90
12893;DHT22;6514;48.606;9.222;2023-04-25T01:29:01;7.30;99.90
12893;DHT22;6514;48.606;9.222;2023-04-25T01:31:28;7.20;99.90
12893;DHT22;6514;48.606;9.222;2023-04-25T01:33:55;7.20;99.90
12893;DHT22;6514;48.606;9.222;2023-04-25T01:36:22;7.20;99.90
12893;DHT22;6514;48.606;9.222;2023-04-25T01:38:50;7.10;99.90
12893;DHT22;6514;48.606;9.222;2023-04-25T01:41:18;7.10;99.90
12893;DHT22;6514;48.606;9.222;2023-04-25T01:43:45;7.10;99.90
12893;DHT22;6514;48.606;9.222;2023-04-25T01:46:12;7.10;99.90
12893;DHT22;6514;48.606;9.222;2023-04-25T01:48:39;7.10;99.90
12893;DHT22;6514;48.606;9.222;2023-04-25T01:51:06;7.10;99.90
12893;DHT22;6514;48.606;9.222;2023-04-25T01:53:33;7.00;99.90
12893;DHT22;6514;48.606;9.222;2023-04-25T01:56:01;7.10;99.90
12893;DHT22;6514;48.606;9.222;2023-04-25T01:58:28;7.10;99.90
12893;DHT22;6514;48.606;9.222;2023-04-25T02:00:55;7.00;99.90
12893;DHT22;6514;48.606;9.222;2023-04-25T02:03:22;7.00;99.90
12893;DHT22;6514;48.606;9.222;2023-04-25T02:05:49;7.00;99.90
12893;DHT22;6514;48.606;9.222;2023-04-25T02:08:17;7.00;99.90
12893;DHT22;6514;48.606;9.222;2023-04-25T02:10:44;7.00;99.90
12893;DHT22;6514;48.606;9.222;2023-04-25T02:13:12;7.00;99.90
12893;DHT22;6514;48.606;9.222;2023-04-25T02:15:39;7.10;99.90
12893;DHT22;6514;48.606;9.222;2023-04-25T02:18:06;7.10;99.90
12893;DHT22;6514;48.606;9.222;2023-04-25T02:20:33;7.10;99.90
12893;DHT22;6514;48.606;9.222;2023-04-25T02:23:00;7.10;99.90
12893;DHT22;6514;48.606;9.222;2023-04-25T02:25:27;7.10;99.90
12893;DHT22;6514;48.606;9.222;2023-04-25T02:27:54;7.10;99.90
12893;DHT22;6514;48.606;9.222;2023-04-25T02:30:22;7.10;99.90
12893;DHT22;6514;48.606;9.222;2023-04-25T02:32:49;7.10;99.90
12893;DHT22;6514;48.606;9.222;2023-04-25T02:35:16;7.10;99.90
12893;DHT22;6514;48.606;9.222;2023-04-25T02:37:43;7.00;99.90
12893;DHT22;6514;48.606;9.222;2023-04-25T02:40:10;7.00;99.90
12893;DHT22;6514;48.606;9.222;2023-04-25T02:42:37;6.90;99.90
12893;DHT22;6514;48.606;9.222;2023-04-25T02:45:05;6.90;99.90
12893;DHT22;6514;48.606;9.222;2023-04-25T02:47:33;6.80;99.90
12893;DHT22;6514;48.606;9.222;2023-04-25T02:50:00;6.80;99.90
12893;DHT22;6514;48.606;9.222;2023-04-25T02:52:26;6.70;99.90
12893;DHT22;6514;48.606;9.222;2023-04-25T02:54:53;6.70;99.90
12893;DHT22;6514;48.606;9.222;2023-04-25T02:57:20;6.70;99.90
12893;DHT22;6514;48.606;9.222;2023-04-25T02:59:47;6.70;99.90
12893;DHT22;6514;48.606;9.222;2023-04-25T03:02:14;6.60;99.90
12893;DHT22;6514;48.606;9.222;2023-04-25T03:04:42;6.60;99.90
12893;DHT22;6514;48.606;9.222;2023-04-25T03:07:10;6.60;99.90
12893;DHT22;6514;48.606;9.222;2023-04-25T03:09:37;6.50;99.90
12893;DHT22;6514;48.606;9.222;2023-04-25T03:12:04;6.50;99.90
12893;DHT22;6514;48.606;9.222;2023-04-25T03:14:31;6.50;99.90
12893;DHT22;6514;48.606;9.222;2023-04-25T03:16:58;6.50;99.90
12893;DHT22;6514;48.606;9.222;2023-04-25T03:19:25;6.40;99.90
12893;DHT22;6514;48.606;9.222;2023-04-25T03:21:53;6.40;99.90
12893;DHT22;6514;48.606;9.222;2023-04-25T03:24:20;6.50;99.90
12893;DHT22;6514;48.606;9.222;2023-04-25T03:26:47;6.40;99.90
12893;DHT22;6514;48.606;9.222;2023-04-25T03:29:14;6.40;99.90
12893;DHT22;6514;48.606;9.222;2023-04-25T03:31:41;6.50;99.90
12893;DHT22;6514;48.606;9.222;2023-04-25T03:34:07;6.40;99.90
12893;DHT22;6514;48.606;9.222;2023-04-25T03:36:34;6.50;99.90
12893;DHT22;6514;48.606;9.222;2023-04-25T03:39:03;6.50;99.90
12893;DHT22;6514;48.606;9.222;2023-04-25T03:41:29;6.50;99.90
12893;DHT22;6514;48.606;9.222;2023-04-25T03:43:56;6.50;99.90
12893;DHT22;6514;48.606;9.222;2023-04-25T03:46:23;6.50;99.90
12893;DHT22;6514;48.606;9.222;2023-04-25T03:48:50;6.50;99.90
12893;DHT22;6514;48.606;9.222;2023-04-25T03:51:17;6.40;99.90
12893;DHT22;6514;48.606;9.222;2023-04-25T03:53:44;6.50;99.90
12893;DHT22;6514;48.606;9.222;2023-04-25T03:56:12;6.40;99.90
12893;DHT22;6514;48.606;9.222;2023-04-25T03:58:39;6.40;99.90
12893;DHT22;6514;48.606;9.222;2023-04-25T04:01:05;6.40;99.90
12893;DHT22;6514;48.606;9.222;2023-04-25T04:03:33;6.30;99.90
12893;DHT22;6514;48.606;9.222;2023-04-25T04:06:00;6.30;99.90
12893;DHT22;6514;48.606;9.222;2023-04-25T04:08:28;6.20;99.90
12893;DHT22;6514;48.606;9.222;2023-04-25T04:10:55;6.20;99.90
12893;DHT22;6514;48.606;9.222;2023-04-25T04:13:23;6.10;99.90
12893;DHT22;6514;48.606;9.222;2023-04-25T04:15:50;6.10;99.90
12893;DHT22;6514;48.606;9.222;2023-04-25T04:18:17;6.00;99.90
12893;DHT22;6514;48.606;9.222;2023-04-25T04:20:44;6.00;99.90
12893;DHT22;6514;48.606;9.222;2023-04-25T04:23:11;6.00;99.90
12893;DHT22;6514;48.606;9.222;2023-04-25T04:25:38;6.00;99.90
12893;DHT22;6514;48.606;9.222;2023-04-25T04:28:05;6.00;99.90
12893;DHT22;6514;48.606;9.222;2023-04-25T04:30:34;6.00;99.90
12893;DHT22;6514;48.606;9.222;2023-04-25T04:33:02;6.00;99.90
12893;DHT22;6514;48.606;9.222;2023-04-25T04:35:29;6.10;99.90
12893;DHT22;6514;48.606;9.222;2023-04-25T04:37:56;6.10;99.90
12893;DHT22;6514;48.606;9.222;2023-04-25T04:40:23;6.20;99.90
12893;DHT22;6514;48.606;9.222;2023-04-25T04:42:51;6.20;99.90
12893;DHT22;6514;48.606;9.222;2023-04-25T04:45:18;6.30;99.90
12893;DHT22;6514;48.606;9.222;2023-04-25T04:47:47;6.30;99.90
12893;DHT22;6514;48.606;9.222;2023-04-25T04:50:15;6.40;99.90
12893;DHT22;6514;48.606;9.222;2023-04-25T04:52:42;6.40;99.90
12893;DHT22;6514;48.606;9.222;2023-04-25T04:55:09;6.40;99.90
12893;DHT22;6514;48.606;9.222;2023-04-25T04:57:36;6.50;99.90
12893;DHT22;6514;48.606;9.222;2023-04-25T05:00:05;6.50;99.90
12893;DHT22;6514;48.606;9.222;2023-04-25T05:02:36;6.50;99.90
12893;DHT22;6514;48.606;9.222;2023-04-25T05:05:05;6.50;99.90
12893;DHT22;6514;48.606;9.222;2023-04-25T05:07:32;6.50;99.90
12893;DHT22;6514;48.606;9.222;2023-04-25T05:09:59;6.60;99.90
12893;DHT22;6514;48.606;9.222;2023-04-25T05:12:25;6.60;99.90
12893;DHT22;6514;48.606;9.222;2023-04-25T05:14:52;6.70;99.90
12893;DHT22;6514;48.606;9.222;2023-04-25T05:17:19;6.80;99.90
12893;DHT22;6514;48.606;9.222;2023-04-25T05:19:46;6.90;99.90
12893;DHT22;6514;48.606;9.222;2023-04-25T05:22:14;7.00;99.90
12893;DHT22;6514;48.606;9.222;2023-04-25T05:24:41;7.10;99.90
12893;DHT22;6514;48.606;9.222;2023-04-25T05:27:08;7.10;99.90
12893;DHT22;6514;48.606;9.222;2023-04-25T05:29:35;7.20;99.90
12893;DHT22;6514;48.606;9.222;2023-04-25T05:32:02;7.20;99.90
12893;DHT22;6514;48.606;9.222;2023-04-25T05:34:29;7.30;99.90
12893;DHT22;6514;48.606;9.222;2023-04-25T05:36:55;7.30;99.90
12893;DHT22;6514;48.606;9.222;2023-04-25T05:39:24;7.30;99.90
12893;DHT22;6514;48.606;9.222;2023-04-25T05:41:50;7.40;99.90
12893;DHT22;6514;48.606;9.222;2023-04-25T05:44:17;7.50;99.90
12893;DHT22;6514;48.606;9.222;2023-04-25T05:46:44;7.60;99.90
12893;DHT22;6514;48.606;9.222;2023-04-25T05:49:11;7.70;99.90
12893;DHT22;6514;48.606;9.222;2023-04-25T05:51:38;7.80;99.90
12893;DHT22;6514;48.606;9.222;2023-04-25T05:54:05;7.90;99.90
12893;DHT22;6514;48.606;9.222;2023-04-25T05:56:33;8.10;99.90
12893;DHT22;6514;48.606;9.222;2023-04-25T05:59:00;8.30;99.90
12893;DHT22;6514;48.606;9.222;2023-04-25T06:01:26;8.40;99.90
12893;DHT22;6514;48.606;9.222;2023-04-25T06:03:53;8.60;99.90
12893;DHT22;6514;48.606;9.222;2023-04-25T06:06:21;8.60;99.90
12893;DHT22;6514;48.606;9.222;2023-04-25T06:08:48;8.70;99.90
12893;DHT22;6514;48.606;9.222;2023-04-25T06:11:15;8.80;99.90
12893;DHT22;6514;48.606;9.222;2023-04-25T06:13:44;8.90;99.90
12893;DHT22;6514;48.606;9.222;2023-04-25T06:16:10;9.10;99.90
12893;DHT22;6514;48.606;9.222;2023-04-25T06:18:37;9.30;99.90
12893;DHT22;6514;48.606;9.222;2023-04-25T06:21:04;9.50;99.90
12893;DHT22;6514;48.606;9.222;2023-04-25T06:23:32;9.60;99.90
12893;DHT22;6514;48.606;9.222;2023-04-25T06:25:59;9.70;99.90
12893;DHT22;6514;48.606;9.222;2023-04-25T06:28:26;9.90;99.90
12893;DHT22;6514;48.606;9.222;2023-04-25T06:30:54;10.00;99.90
12893;DHT22;6514;48.606;9.222;2023-04-25T06:33:21;10.20;99.90
12893;DHT22;6514;48.606;9.222;2023-04-25T06:35:49;10.40;99.90
12893;DHT22;6514;48.606;9.222;2023-04-25T06:38:16;10.50;99.90
12893;DHT22;6514;48.606;9.222;2023-04-25T06:40:43;10.50;99.90
12893;DHT22;6514;48.606;9.222;2023-04-25T06:43:10;10.60;99.90
12893;DHT22;6514;48.606;9.222;2023-04-25T06:45:37;10.60;99.90
12893;DHT22;6514;48.606;9.222;2023-04-25T06:48:05;10.60;99.90
12893;DHT22;6514;48.606;9.222;2023-04-25T06:50:33;10.50;99.90
12893;DHT22;6514;48.606;9.222;2023-04-25T06:53:00;10.50;99.90
12893;DHT22;6514;48.606;9.222;2023-04-25T06:55:28;10.40;99.90
12893;DHT22;6514;48.606;9.222;2023-04-25T06:57:55;10.40;99.90
12893;DHT22;6514;48.606;9.222;2023-04-25T07:00:22;10.20;99.90
12893;DHT22;6514;48.606;9.222;2023-04-25T07:02:49;10.10;99.90
12893;DHT22;6514;48.606;9.222;2023-04-25T07:05:17;10.00;99.90
12893;DHT22;6514;48.606;9.222;2023-04-25T07:07:44;9.90;99.90
12893;DHT22;6514;48.606;9.222;2023-04-25T07:10:11;9.80;99.90
12893;DHT22;6514;48.606;9.222;2023-04-25T07:12:38;9.60;99.90
12893;DHT22;6514;48.606;9.222;2023-04-25T07:15:06;9.60;99.90
12893;DHT22;6514;48.606;9.222;2023-04-25T07:17:35;9.40;99.90
12893;DHT22;6514;48.606;9.222;2023-04-25T07:20:02;9.40;99.90
12893;DHT22;6514;48.606;9.222;2023-04-25T07:22:32;9.20;99.90
12893;DHT22;6514;48.606;9.222;2023-04-25T07:24:59;9.00;99.90
12893;DHT22;6514;48.606;9.222;2023-04-25T07:27:26;9.00;99.90
12893;DHT22;6514;48.606;9.222;2023-04-25T07:29:53;8.90;99.90
12893;DHT22;6514;48.606;9.222;2023-04-25T07:32:20;8.70;99.90
12893;DHT22;6514;48.606;9.222;2023-04-25T07:34:47;8.70;99.90
12893;DHT22;6514;48.606;9.222;2023-04-25T07:37:14;8.60;99.90
12893;DHT22;6514;48.606;9.222;2023-04-25T07:39:42;8.50;99.90
12893;DHT22;6514;48.606;9.222;2023-04-25T07:42:11;8.50;99.90
12893;DHT22;6514;48.606;9.222;2023-04-25T07:44:38;8.40;99.90
12893;DHT22;6514;48.606;9.222;2023-04-25T07:47:05;8.40;99.90
12893;DHT22;6514;48.606;9.222;2023-04-25T07:49:33;8.30;99.90
12893;DHT22;6514;48.606;9.222;2023-04-25T07:52:01;8.30;99.90
12893;DHT22;6514;48.606;9.222;2023-04-25T07:54:28;8.20;99.90
12893;DHT22;6514;48.606;9.222;2023-04-25T07:56:56;8.20;99.90
12893;DHT22;6514;48.606;9.222;2023-04-25T07:59:23;8.20;99.90
12893;DHT22;6514;48.606;9.222;2023-04-25T08:01:50;8.20;99.90
12893;DHT22;6514;48.606;9.222;2023-04-25T08:04:17;8.10;99.90
12893;DHT22;6514;48.606;9.222;2023-04-25T08:06:44;8.10;99.90
12893;DHT22;6514;48.606;9.222;2023-04-25T08:09:12;8.00;99.90
12893;DHT22;6514;48.606;9.222;2023-04-25T08:11:38;8.00;99.90
12893;DHT22;6514;48.606;9.222;2023-04-25T08:14:07;7.90;99.90
12893;DHT22;6514;48.606;9.222;2023-04-25T08:16:34;7.80;99.90
12893;DHT22;6514;48.606;9.222;2023-04-25T08:19:01;7.90;99.90
12893;DHT22;6514;48.606;9.222;2023-04-25T08:21:27;7.90;99.90
12893;DHT22;6514;48.606;9.222;2023-04-25T08:23:54;7.90;99.90
12893;DHT22;6514;48.606;9.222;2023-04-25T08:26:22;7.90;99.90
12893;DHT22;6514;48.606;9.222;2023-04-25T08:28:49;7.90;99.90
12893;DHT22;6514;48.606;9.222;2023-04-25T08:31:18;7.90;99.90
12893;DHT22;6514;48.606;9.222;2023-04-25T08:33:45;7.90;99.90
12893;DHT22;6514;48.606;9.222;2023-04-25T08:36:12;7.90;99.90
12893;DHT22;6514;48.606;9.222;2023-04-25T08:38:38;8.00;99.90
12893;DHT22;6514;48.606;9.222;2023-04-25T08:41:06;8.00;99.90
12893;DHT22;6514;48.606;9.222;2023-04-25T08:43:35;8.00;99.90
12893;DHT22;6514;48.606;9.222;2023-04-25T08:46:02;8.00;99.90
12893;DHT22;6514;48.606;9.222;2023-04-25T08:48:32;8.10;99.90
12893;DHT22;6514;48.606;9.222;2023-04-25T08:51:01;8.20;99.90
12893;DHT22;6514;48.606;9.222;2023-04-25T08:53:31;8.30;99.90
12893;DHT22;6514;48.606;9.222;2023-04-25T08:56:00;8.30;99.90
12893;DHT22;6514;48.606;9.222;2023-04-25T08:58:28;8.40;99.90
12893;DHT22;6514;48.606;9.222;2023-04-25T09:00:55;8.40;99.90
12893;DHT22;6514;48.606;9.222;2023-04-25T09:03:22;8.40;99.90
12893;DHT22;6514;48.606;9.222;2023-04-25T09:05:51;8.50;99.90
12893;DHT22;6514;48.606;9.222;2023-04-25T09:08:18;8.50;99.90
12893;DHT22;6514;48.606;9.222;2023-04-25T09:10:45;8.70;99.90
12893;DHT22;6514;48.606;9.222;2023-04-25T09:13:14;8.70;99.90
12893;DHT22;6514;48.606;9.222;2023-04-25T09:15:49;8.70;99.90
12893;DHT22;6514;48.606;9.222;2023-04-25T09:18:23;8.80;99.90
12893;DHT22;6514;48.606;9.222;2023-04-25T09:20:53;8.80;99.90
12893;DHT22;6514;48.606;9.222;2023-04-25T09:23:21;8.80;99.90
12893;DHT22;6514;48.606;9.222;2023-04-25T09:25:50;8.80;99.90
12893;DHT22;6514;48.606;9.222;2023-04-25T09:28:23;8.70;99.90
12893;DHT22;6514;48.606;9.222;2023-04-25T09:30:55;8.50;99.90
12893;DHT22;6514;48.606;9.222;2023-04-25T09:33:28;8.40;99.90
12893;DHT22;6514;48.606;9.222;2023-04-25T09:36:03;8.30;99.90
12893;DHT22;6514;48.606;9.222;2023-04-25T09:38:31;8.10;99.90
12893;DHT22;6514;48.606;9.222;2023-04-25T09:40:59;8.10;99.90
12893;DHT22;6514;48.606;9.222;2023-04-25T09:43:27;8.00;99.90
12893;DHT22;6514;48.606;9.222;2023-04-25T09:45:55;8.00;99.90
12893;DHT22;6514;48.606;9.222;2023-04-25T09:48:26;7.90;99.90
12893;DHT22;6514;48.606;9.222;2023-04-25T09:51:08;8.00;99.90
12893;DHT22;6514;48.606;9.222;2023-04-25T09:53:37;8.00;99.90
12893;DHT22;6514;48.606;9.222;2023-04-25T09:56:05;8.10;99.90
12893;DHT22;6514;48.606;9.222;2023-04-25T09:58:33;8.20;99.90
12893;DHT22;6514;48.606;9.222;2023-04-25T10:01:02;8.40;99.90
12893;DHT22;6514;48.606;9.222;2023-04-25T10:03:30;8.40;99.90
12893;DHT22;6514;48.606;9.222;2023-04-25T10:06:00;8.50;99.90
12893;DHT22;6514;48.606;9.222;2023-04-25T10:08:32;8.50;99.90
12893;DHT22;6514;48.606;9.222;2023-04-25T10:11:00;8.50;99.90
12893;DHT22;6514;48.606;9.222;2023-04-25T10:13:28;8.40;99.90
12893;DHT22;6514;48.606;9.222;2023-04-25T10:15:57;8.30;99.90
12893;DHT22;6514;48.606;9.222;2023-04-25T10:18:25;8.30;99.90
12893;DHT22;6514;48.606;9.222;2023-04-25T10:20:53;8.30;99.90
12893;DHT22;6514;48.606;9.222;2023-04-25T10:23:21;8.20;99.90
12893;DHT22;6514;48.606;9.222;2023-04-25T10:25:51;8.10;99.90
12893;DHT22;6514;48.606;9.222;2023-04-25T10:28:18;8.20;99.90
12893;DHT22;6514;48.606;9.222;2023-04-25T10:30:58;8.10;99.90
12893;DHT22;6514;48.606;9.222;2023-04-25T10:33:36;7.90;99.90
12893;DHT22;6514;48.606;9.222;2023-04-25T10:36:13;7.80;99.90
12893;DHT22;6514;48.606;9.222;2023-04-25T10:38:42;7.70;99.90
12893;DHT22;6514;48.606;9.222;2023-04-25T10:41:12;7.60;99.90
12893;DHT22;6514;48.606;9.222;2023-04-25T10:43:40;7.40;99.90
12893;DHT22;6514;48.606;9.222;2023-04-25T10:46:17;7.40;99.90
12893;DHT22;6514;48.606;9.222;2023-04-25T10:48:49;7.40;99.90
12893;DHT22;6514;48.606;9.222;2023-04-25T10:51:21;7.50;99.90
12893;DHT22;6514;48.606;9.222;2023-04-25T10:53:58;7.50;99.90
12893;DHT22;6514;48.606;9.222;2023-04-25T10:56:28;7.60;99.90
12893;DHT22;6514;48.606;9.222;2023-04-25T10:59:06;7.70;99.90
12893;DHT22;6514;48.606;9.222;2023-04-25T11:01:37;7.80;99.90
12893;DHT22;6514;48.606;9.222;2023-04-25T11:04:05;7.80;99.90
12893;DHT22;6514;48.606;9.222;2023-04-25T11:06:42;7.90;99.90
12893;DHT22;6514;48.606;9.222;2023-04-25T11:09:11;8.00;99.90
12893;DHT22;6514;48.606;9.222;2023-04-25T11:11:41;8.00;99.90
12893;DHT22;6514;48.606;9.222;2023-04-25T11:14:08;8.00;99.90
12893;DHT22;6514;48.606;9.222;2023-04-25T11:16:34;8.20;99.90
12893;DHT22;6514;48.606;9.222;2023-04-25T11:19:02;8.30;99.90
12893;DHT22;6514;48.606;9.222;2023-04-25T11:21:29;8.40;99.90
12893;DHT22;6514;48.606;9.222;2023-04-25T11:23:57;8.50;99.90
12893;DHT22;6514;48.606;9.222;2023-04-25T11:26:24;8.60;99.90
12893;DHT22;6514;48.606;9.222;2023-04-25T11:28:57;8.70;99.90
12893;DHT22;6514;48.606;9.222;2023-04-25T11:31:24;8.70;99.90
12893;DHT22;6514;48.606;9.222;2023-04-25T11:33:53;8.80;99.90
12893;DHT22;6514;48.606;9.222;2023-04-25T11:36:20;8.90;99.90
12893;DHT22;6514;48.606;9.222;2023-04-25T11:38:46;9.00;99.90
12893;DHT22;6514;48.606;9.222;2023-04-25T11:41:13;9.00;99.90
12893;DHT22;6514;48.606;9.222;2023-04-25T11:43:40;9.00;99.90
12893;DHT22;6514;48.606;9.222;2023-04-25T11:46:10;8.90;99.90
12893;DHT22;6514;48.606;9.222;2023-04-25T11:48:38;9.00;99.90
12893;DHT22;6514;48.606;9.222;2023-04-25T11:51:05;9.00;99.90
12893;DHT22;6514;48.606;9.222;2023-04-25T11:53:32;9.00;99.90
12893;DHT22;6514;48.606;9.222;2023-04-25T11:55:59;8.90;99.90
12893;DHT22;6514;48.606;9.222;2023-04-25T11:58:26;8.90;99.90
12893;DHT22;6514;48.606;9.222;2023-04-25T12:00:53;8.80;99.90
12893;DHT22;6514;48.606;9.222;2023-04-25T12:03:25;8.90;99.90
12893;DHT22;6514;48.606;9.222;2023-04-25T12:06:02;8.70;99.90
12893;DHT22;6514;48.606;9.222;2023-04-25T12:08:30;8.60;99.90
12893;DHT22;6514;48.606;9.222;2023-04-25T12:10:58;8.40;99.90
12893;DHT22;6514;48.606;9.222;2023-04-25T12:13:31;8.30;99.90
12893;DHT22;6514;48.606;9.222;2023-04-25T12:15:58;8.20;99.90
12893;DHT22;6514;48.606;9.222;2023-04-25T12:18:30;8.30;99.90
12893;DHT22;6514;48.606;9.222;2023-04-25T12:20:58;8.50;99.90
12893;DHT22;6514;48.606;9.222;2023-04-25T12:23:26;8.70;99.90
12893;DHT22;6514;48.606;9.222;2023-04-25T12:25:53;9.00;99.90
12893;DHT22;6514;48.606;9.222;2023-04-25T12:28:22;9.30;99.90
12893;DHT22;6514;48.606;9.222;2023-04-25T12:30:57;9.70;99.90
12893;DHT22;6514;48.606;9.222;2023-04-25T12:33:24;10.20;99.90
12893;DHT22;6514;48.606;9.222;2023-04-25T12:35:54;10.60;99.90
12893;DHT22;6514;48.606;9.222;2023-04-25T12:38:22;10.80;99.90
12893;DHT22;6514;48.606;9.222;2023-04-25T12:40:49;10.90;99.90
12893;DHT22;6514;48.606;9.222;2023-04-25T12:43:16;11.10;99.90
12893;DHT22;6514;48.606;9.222;2023-04-25T12:45:43;11.20;99.90
12893;DHT22;6514;48.606;9.222;2023-04-25T12:48:10;11.30;99.90
12893;DHT22;6514;48.606;9.222;2023-04-25T12:50:37;11.30;99.90
12893;DHT22;6514;48.606;9.222;2023-04-25T12:53:05;11.20;99.90
12893;DHT22;6514;48.606;9.222;2023-04-25T12:55:32;11.30;99.90
12893;DHT22;6514;48.606;9.222;2023-04-25T12:57:59;11.20;99.90
12893;DHT22;6514;48.606;9.222;2023-04-25T13:00:26;11.20;99.90
12893;DHT22;6514;48.606;9.222;2023-04-25T13:02:53;11.10;99.90
12893;DHT22;6514;48.606;9.222;2023-04-25T13:05:19;11.20;99.90
12893;DHT22;6514;48.606;9.222;2023-04-25T13:07:46;11.40;99.90
12893;DHT22;6514;48.606;9.222;2023-04-25T13:10:14;11.50;99.90
12893;DHT22;6514;48.606;9.222;2023-04-25T13:12:43;11.70;99.90
12893;DHT22;6514;48.606;9.222;2023-04-25T13:15:11;11.90;99.90
12893;DHT22;6514;48.606;9.222;2023-04-25T13:17:38;11.80;99.90
12893;DHT22;6514;48.606;9.222;2023-04-25T13:20:06;12.00;99.90
12893;DHT22;6514;48.606;9.222;2023-04-25T13:22:35;12.10;99.90
12893;DHT22;6514;48.606;9.222;2023-04-25T13:25:04;12.20;99.90
12893;DHT22;6514;48.606;9.222;2023-04-25T13:27:32;12.30;99.90
12893;DHT22;6514;48.606;9.222;2023-04-25T13:29:59;12.50;99.90
12893;DHT22;6514;48.606;9.222;2023-04-25T13:32:27;12.70;99.90
12893;DHT22;6514;48.606;9.222;2023-04-25T13:34:53;13.00;99.90
12893;DHT22;6514;48.606;9.222;2023-04-25T13:37:21;13.40;99.90
12893;DHT22;6514;48.606;9.222;2023-04-25T13:39:50;13.60;99.90
12893;DHT22;6514;48.606;9.222;2023-04-25T13:42:17;13.60;99.90
12893;DHT22;6514;48.606;9.222;2023-04-25T13:44:45;13.60;99.90
12893;DHT22;6514;48.606;9.222;2023-04-25T13:47:12;13.60;99.90
12893;DHT22;6514;48.606;9.222;2023-04-25T13:49:38;13.70;99.90
12893;DHT22;6514;48.606;9.222;2023-04-25T13:52:05;13.70;99.90
12893;DHT22;6514;48.606;9.222;2023-04-25T13:54:33;13.60;99.90
12893;DHT22;6514;48.606;9.222;2023-04-25T13:57:00;13.60;99.90
12893;DHT22;6514;48.606;9.222;2023-04-25T13:59:27;13.60;99.90
12893;DHT22;6514;48.606;9.222;2023-04-25T14:01:56;13.80;99.90
12893;DHT22;6514;48.606;9.222;2023-04-25T14:04:22;13.80;99.90
12893;DHT22;6514;48.606;9.222;2023-04-25T14:06:50;14.10;99.90
12893;DHT22;6514;48.606;9.222;2023-04-25T14:09:18;14.30;99.90
12893;DHT22;6514;48.606;9.222;2023-04-25T14:11:46;14.20;99.90
12893;DHT22;6514;48.606;9.222;2023-04-25T14:14:13;14.20;99.90
12893;DHT22;6514;48.606;9.222;2023-04-25T14:16:41;14.10;99.90
12893;DHT22;6514;48.606;9.222;2023-04-25T14:19:09;14.00;99.90
12893;DHT22;6514;48.606;9.222;2023-04-25T14:21:36;14.00;99.90
12893;DHT22;6514;48.606;9.222;2023-04-25T14:24:04;14.10;99.90
12893;DHT22;6514;48.606;9.222;2023-04-25T14:26:33;14.10;99.90
12893;DHT22;6514;48.606;9.222;2023-04-25T14:29:00;14.00;99.90
12893;DHT22;6514;48.606;9.222;2023-04-25T14:31:27;13.70;99.90
12893;DHT22;6514;48.606;9.222;2023-04-25T14:33:53;13.70;99.90
12893;DHT22;6514;48.606;9.222;2023-04-25T14:36:22;13.60;99.90
12893;DHT22;6514;48.606;9.222;2023-04-25T14:38:49;13.70;99.90
12893;DHT22;6514;48.606;9.222;2023-04-25T14:41:16;13.90;99.90
12893;DHT22;6514;48.606;9.222;2023-04-25T14:43:43;14.20;99.90
12893;DHT22;6514;48.606;9.222;2023-04-25T14:46:10;14.30;99.90
12893;DHT22;6514;48.606;9.222;2023-04-25T14:48:37;14.30;99.90
12893;DHT22;6514;48.606;9.222;2023-04-25T14:51:04;14.00;99.90
12893;DHT22;6514;48.606;9.222;2023-04-25T14:53:33;13.90;99.90
12893;DHT22;6514;48.606;9.222;2023-04-25T14:55:59;13.70;99.90
12893;DHT22;6514;48.606;9.222;2023-04-25T14:58:27;13.50;99.90
12893;DHT22;6514;48.606;9.222;2023-04-25T15:00:54;13.30;99.90
12893;DHT22;6514;48.606;9.222;2023-04-25T15:03:21;13.40;99.90
12893;DHT22;6514;48.606;9.222;2023-04-25T15:05:48;13.60;99.90
12893;DHT22;6514;48.606;9.222;2023-04-25T15:08:15;13.60;99.90
12893;DHT22;6514;48.606;9.222;2023-04-25T15:10:43;13.70;99.90
12893;DHT22;6514;48.606;9.222;2023-04-25T15:13:10;13.80;99.90
12893;DHT22;6514;48.606;9.222;2023-04-25T15:15:37;14.30;99.90
12893;DHT22;6514;48.606;9.222;2023-04-25T15:18:04;14.90;99.90
12893;DHT22;6514;48.606;9.222;2023-04-25T15:20:31;15.50;99.90
12893;DHT22;6514;48.606;9.222;2023-04-25T15:22:58;16.30;99.90
12893;DHT22;6514;48.606;9.222;2023-04-25T15:25:25;16.80;99.90
12893;DHT22;6514;48.606;9.222;2023-04-25T15:27:55;16.80;99.90
12893;DHT22;6514;48.606;9.222;2023-04-25T15:30:22;16.40;99.90
12893;DHT22;6514;48.606;9.222;2023-04-25T15:32:48;15.90;99.90
12893;DHT22;6514;48.606;9.222;2023-04-25T15:35:15;15.60;99.90
12893;DHT22;6514;48.606;9.222;2023-04-25T15:37:42;15.10;99.90
12893;DHT22;6514;48.606;9.222;2023-04-25T15:40:11;15.20;99.90
12893;DHT22;6514;48.606;9.222;2023-04-25T15:42:39;14.90;99.90
12893;DHT22;6514;48.606;9.222;2023-04-25T15:45:09;14.50;99.90
12893;DHT22;6514;48.606;9.222;2023-04-25T15:47:37;13.90;99.90
12893;DHT22;6514;48.606;9.222;2023-04-25T15:50:13;13.50;99.90
12893;DHT22;6514;48.606;9.222;2023-04-25T15:52:40;13.20;99.90
12893;DHT22;6514;48.606;9.222;2023-04-25T15:55:09;13.00;99.90
12893;DHT22;6514;48.606;9.222;2023-04-25T15:57:37;12.90;99.90
12893;DHT22;6514;48.606;9.222;2023-04-25T16:00:09;12.90;99.90